createdAt,value
2018-11-26T00:00:56.654Z,6.14
2018-11-26T00:01:56.657Z,6.09
2018-11-26T00:02:56.668Z,6.12
2018-11-26T00:03:56.679Z,6.14
2018-11-26T00:04:56.686Z,6.12
2018-11-26T00:05:56.702Z,6.11
2018-11-26T00:06:56.708Z,6.12
2018-11-26T00:07:56.713Z,6.06
2018-11-26T00:08:56.730Z,6.09
2018-11-26T00:09:56.733Z,6.11
2018-11-26T00:10:56.746Z,6.11
2018-11-26T00:11:56.753Z,6.01
2018-11-26T00:12:56.762Z,6.03
2018-11-26T00:13:56.768Z,6.08
2018-11-26T00:14:56.777Z,6.08
2018-11-26T00:15:56.787Z,6.04
2018-11-26T00:16:56.796Z,6.09
2018-11-26T00:17:56.808Z,6.11
2018-11-26T00:18:56.814Z,6.11
2018-11-26T00:19:56.831Z,6.11
2018-11-26T00:20:56.879Z,6.04
2018-11-26T00:21:56.841Z,5.97
2018-11-26T00:22:56.852Z,6.03
2018-11-26T00:23:56.860Z,6.01
2018-11-26T00:24:56.869Z,5.99
2018-11-26T00:25:56.881Z,5.94
2018-11-26T00:26:56.893Z,5.94
2018-11-26T00:27:56.898Z,5.99
2018-11-26T00:28:56.909Z,6.04
2018-11-26T00:29:56.915Z,6.04
2018-11-26T00:30:56.928Z,6.12
2018-11-26T00:31:56.935Z,6.12
2018-11-26T00:32:56.945Z,5.99
2018-11-26T00:33:56.954Z,6.03
2018-11-26T00:34:56.961Z,6.09
2018-11-26T00:35:57.007Z,6.04
2018-11-26T00:36:56.982Z,6.03
2018-11-26T00:37:56.989Z,6.11
2018-11-26T00:38:56.998Z,6.08
2018-11-26T00:39:57.007Z,6.03
2018-11-26T00:40:57.016Z,6.03
2018-11-26T00:41:57.030Z,6.11
2018-11-26T00:42:57.034Z,6.03
2018-11-26T00:43:57.053Z,6.08
2018-11-26T00:44:57.060Z,6.03
2018-11-26T00:45:57.065Z,6.04
2018-11-26T00:46:57.074Z,6.11
2018-11-26T00:47:57.082Z,6.04
2018-11-26T00:48:57.090Z,6.12
2018-11-26T00:49:57.113Z,6.00
2018-11-26T00:50:57.138Z,6.06
2018-11-26T00:51:57.116Z,6.09
2018-11-26T00:52:57.143Z,6.08
2018-11-26T00:53:57.142Z,6.01
2018-11-26T00:54:57.143Z,6.09
2018-11-26T00:55:57.153Z,6.08
2018-11-26T00:56:57.163Z,6.04
2018-11-26T00:57:57.175Z,6.09
2018-11-26T00:58:57.181Z,6.09
2018-11-26T00:59:57.190Z,5.91
2018-11-26T01:00:57.205Z,5.94
2018-11-26T01:01:57.225Z,5.97
2018-11-26T01:02:57.219Z,5.94
2018-11-26T01:03:57.229Z,5.99
2018-11-26T01:04:57.238Z,6.00
2018-11-26T01:05:57.254Z,6.09
2018-11-26T01:06:57.255Z,6.09
2018-11-26T01:07:57.271Z,6.03
2018-11-26T01:08:57.275Z,6.06
2018-11-26T01:09:57.292Z,6.09
2018-11-26T01:10:57.293Z,6.09
2018-11-26T01:11:57.310Z,6.08
2018-11-26T01:12:57.313Z,6.06
2018-11-26T01:13:57.321Z,6.11
2018-11-26T01:14:57.329Z,6.04
2018-11-26T01:15:57.339Z,6.06
2018-11-26T01:16:57.361Z,6.08
2018-11-26T01:17:57.358Z,6.00
2018-11-26T01:18:57.378Z,6.01
2018-11-26T01:19:57.385Z,6.04
2018-11-26T01:20:57.386Z,5.99
2018-11-26T01:21:57.401Z,6.03
2018-11-26T01:22:57.402Z,6.04
2018-11-26T01:23:57.410Z,6.09
2018-11-26T01:24:57.424Z,6.09
2018-11-26T01:25:57.431Z,6.03
2018-11-26T01:26:57.437Z,6.01
2018-11-26T01:27:57.451Z,6.04
2018-11-26T01:28:57.461Z,5.99
2018-11-26T01:29:57.467Z,5.99
2018-11-26T01:30:57.474Z,5.94
2018-11-26T01:31:57.495Z,5.99
2018-11-26T01:32:57.505Z,5.94
2018-11-26T01:33:57.503Z,5.86
2018-11-26T01:34:57.521Z,5.97
2018-11-26T01:35:57.530Z,5.97
2018-11-26T01:36:57.541Z,6.01
2018-11-26T01:37:57.543Z,5.97
2018-11-26T01:38:57.553Z,5.94
2018-11-26T01:39:57.705Z,6.04
2018-11-26T01:40:57.565Z,5.86
2018-11-26T01:41:57.592Z,5.99
2018-11-26T01:42:57.587Z,5.99
2018-11-26T01:43:57.595Z,6.00
2018-11-26T01:44:57.615Z,5.96
2018-11-26T01:45:57.612Z,5.99
2018-11-26T01:46:57.625Z,6.00
2018-11-26T01:47:57.633Z,5.93
2018-11-26T01:48:57.642Z,5.96
2018-11-26T01:49:57.656Z,5.97
2018-11-26T01:50:57.661Z,5.99
2018-11-26T01:51:57.678Z,5.94
2018-11-26T01:52:57.672Z,5.91
2018-11-26T01:53:57.687Z,5.99
2018-11-26T01:54:57.695Z,6.00
2018-11-26T01:55:57.703Z,5.90
2018-11-26T01:56:57.713Z,5.91
2018-11-26T01:57:57.731Z,5.99
2018-11-26T01:58:57.731Z,5.96
2018-11-26T01:59:57.744Z,5.94
2018-11-26T02:00:57.745Z,5.93
2018-11-26T02:01:57.768Z,5.99
2018-11-26T02:02:57.764Z,6.03
2018-11-26T02:03:57.772Z,6.12
2018-11-26T02:04:57.784Z,6.01
2018-11-26T02:05:57.799Z,6.01
2018-11-26T02:06:57.818Z,5.96
2018-11-26T02:07:57.808Z,6.01
2018-11-26T02:08:57.819Z,6.09
2018-11-26T02:09:57.827Z,6.03
2018-11-26T02:10:57.834Z,6.08
2018-11-26T02:11:57.855Z,6.01
2018-11-26T02:12:57.858Z,6.06
2018-11-26T02:13:57.884Z,6.11
2018-11-26T02:14:57.880Z,6.04
2018-11-26T02:15:57.882Z,6.04
2018-11-26T02:16:57.896Z,5.97
2018-11-26T02:17:57.904Z,6.09
2018-11-26T02:18:57.922Z,6.11
2018-11-26T02:19:57.916Z,6.11
2018-11-26T02:20:57.927Z,6.03
2018-11-26T02:21:57.934Z,6.08
2018-11-26T02:22:57.988Z,6.09
2018-11-26T02:23:57.960Z,6.08
2018-11-26T02:24:57.967Z,6.11
2018-11-26T02:25:57.972Z,6.14
2018-11-26T02:26:57.998Z,5.99
2018-11-26T02:27:57.990Z,6.04
2018-11-26T02:28:58.012Z,6.04
2018-11-26T02:29:58.025Z,6.08
2018-11-26T02:30:58.024Z,6.04
2018-11-26T02:31:58.026Z,6.08
2018-11-26T02:32:58.036Z,6.04
2018-11-26T02:33:58.045Z,6.12
2018-11-26T02:34:58.051Z,6.04
2018-11-26T02:35:58.066Z,6.12
2018-11-26T02:36:58.070Z,6.00
2018-11-26T02:37:58.080Z,6.04
2018-11-26T02:38:58.090Z,6.04
2018-11-26T02:39:58.097Z,6.14
2018-11-26T02:40:58.118Z,6.12
2018-11-26T02:41:58.115Z,6.17
2018-11-26T02:42:58.124Z,6.14
2018-11-26T02:43:58.161Z,6.12
2018-11-26T02:44:58.143Z,6.15
2018-11-26T02:45:58.165Z,6.14
2018-11-26T02:46:58.163Z,6.18
2018-11-26T02:47:58.179Z,6.14
2018-11-26T02:48:58.180Z,6.15
2018-11-26T02:49:58.191Z,6.11
2018-11-26T02:50:58.197Z,6.19
2018-11-26T02:51:58.209Z,6.14
2018-11-26T02:52:58.225Z,6.11
2018-11-26T02:53:58.231Z,6.19
2018-11-26T02:54:58.236Z,6.19
2018-11-26T02:55:58.262Z,6.04
2018-11-26T02:56:58.255Z,6.17
2018-11-26T02:57:58.266Z,6.12
2018-11-26T02:58:58.279Z,6.12
2018-11-26T02:59:58.282Z,6.12
2018-11-26T03:00:58.294Z,6.18
2018-11-26T03:01:58.304Z,6.14
2018-11-26T03:02:58.314Z,6.11
2018-11-26T03:03:58.317Z,6.17
2018-11-26T03:04:58.348Z,6.12
2018-11-26T03:05:58.338Z,6.12
2018-11-26T03:06:58.383Z,6.18
2018-11-26T03:07:58.352Z,6.15
2018-11-26T03:08:58.363Z,6.15
2018-11-26T03:09:58.372Z,6.19
2018-11-26T03:10:58.385Z,6.11
2018-11-26T03:11:58.397Z,6.14
2018-11-26T03:12:58.399Z,6.19
2018-11-26T03:13:58.410Z,6.19
2018-11-26T03:14:58.419Z,6.19
2018-11-26T03:15:58.426Z,6.18
2018-11-26T03:16:58.437Z,6.18
2018-11-26T03:17:58.492Z,6.18
2018-11-26T03:18:58.459Z,6.15
2018-11-26T03:19:58.464Z,6.15
2018-11-26T03:20:58.476Z,6.19
2018-11-26T03:21:58.482Z,6.19
2018-11-26T03:22:58.495Z,6.17
2018-11-26T03:23:58.500Z,6.21
2018-11-26T03:24:58.509Z,6.21
2018-11-26T03:25:58.523Z,6.18
2018-11-26T03:26:58.527Z,6.22
2018-11-26T03:27:58.843Z,6.18
2018-11-26T03:28:58.545Z,6.14
2018-11-26T03:29:58.556Z,6.18
2018-11-26T03:30:58.574Z,6.19
2018-11-26T03:31:58.575Z,6.15
2018-11-26T03:32:58.582Z,6.17
2018-11-26T03:33:58.592Z,6.21
2018-11-26T03:34:58.601Z,6.17
2018-11-26T03:35:58.612Z,6.18
2018-11-26T03:36:58.618Z,6.21
2018-11-26T03:37:58.629Z,6.18
2018-11-26T03:38:58.638Z,6.19
2018-11-26T03:39:58.646Z,6.15
2018-11-26T03:40:58.662Z,6.18
2018-11-26T03:41:58.667Z,6.17
2018-11-26T03:42:58.674Z,6.22
2018-11-26T03:43:58.686Z,6.22
2018-11-26T03:44:58.695Z,6.15
2018-11-26T03:45:58.706Z,6.18
2018-11-26T03:46:58.712Z,6.17
2018-11-26T03:47:58.827Z,6.22
2018-11-26T03:48:58.725Z,6.18
2018-11-26T03:49:58.732Z,6.30
2018-11-26T03:50:58.763Z,6.28
2018-11-26T03:51:58.750Z,6.28
2018-11-26T03:52:58.760Z,6.25
2018-11-26T03:53:58.769Z,6.37
2018-11-26T03:54:58.779Z,6.33
2018-11-26T03:55:58.788Z,6.30
2018-11-26T03:56:58.799Z,6.28
2018-11-26T03:57:58.810Z,6.27
2018-11-26T03:58:58.815Z,6.28
2018-11-26T03:59:58.825Z,6.33
2018-11-26T04:00:58.844Z,6.30
2018-11-26T04:01:58.846Z,6.31
2018-11-26T04:02:58.853Z,6.36
2018-11-26T04:03:58.866Z,6.37
2018-11-26T04:04:58.873Z,6.33
2018-11-26T04:05:58.880Z,6.37
2018-11-26T04:06:58.889Z,6.40
2018-11-26T04:07:58.903Z,6.33
2018-11-26T04:08:58.912Z,6.33
2018-11-26T04:09:58.921Z,6.27
2018-11-26T04:10:58.932Z,6.38
2018-11-26T04:11:58.936Z,6.43
2018-11-26T04:12:58.946Z,6.28
2018-11-26T04:13:58.958Z,6.37
2018-11-26T04:14:58.967Z,6.31
2018-11-26T04:15:58.980Z,6.37
2018-11-26T04:16:58.983Z,6.40
2018-11-26T04:17:58.991Z,6.33
2018-11-26T04:18:59.002Z,6.40
2018-11-26T04:19:59.010Z,6.40
2018-11-26T04:20:59.019Z,6.30
2018-11-26T04:21:59.056Z,6.38
2018-11-26T04:22:59.039Z,6.33
2018-11-26T04:23:59.058Z,6.40
2018-11-26T04:24:59.060Z,6.31
2018-11-26T04:25:59.068Z,6.33
2018-11-26T04:26:59.075Z,6.37
2018-11-26T04:27:59.091Z,6.41
2018-11-26T04:28:59.099Z,6.33
2018-11-26T04:29:59.104Z,6.41
2018-11-26T04:30:59.184Z,6.33
2018-11-26T04:31:59.125Z,6.30
2018-11-26T04:32:59.144Z,6.40
2018-11-26T04:33:59.145Z,6.41
2018-11-26T04:34:59.160Z,6.38
2018-11-26T04:35:59.173Z,6.31
2018-11-26T04:36:59.172Z,6.44
2018-11-26T04:37:59.283Z,6.40
2018-11-26T04:38:59.188Z,6.46
2018-11-26T04:39:59.196Z,6.46
2018-11-26T04:40:59.207Z,6.49
2018-11-26T04:41:59.217Z,6.37
2018-11-26T04:42:59.225Z,6.43
2018-11-26T04:43:59.234Z,6.38
2018-11-26T04:44:59.252Z,6.37
2018-11-26T04:45:59.254Z,6.41
2018-11-26T04:46:59.264Z,6.40
2018-11-26T04:47:59.271Z,6.41
2018-11-26T04:48:59.283Z,6.43
2018-11-26T04:49:59.292Z,6.34
2018-11-26T04:50:59.304Z,6.37
2018-11-26T04:51:59.318Z,6.40
2018-11-26T04:52:59.327Z,6.46
2018-11-26T04:53:59.336Z,6.44
2018-11-26T04:54:59.338Z,6.34
2018-11-26T04:55:59.345Z,6.41
2018-11-26T04:56:59.357Z,6.27
2018-11-26T04:57:59.365Z,6.31
2018-11-26T04:58:59.374Z,6.30
2018-11-26T04:59:59.384Z,6.43
2018-11-26T05:00:59.425Z,6.41
2018-11-26T05:01:59.405Z,6.33
2018-11-26T05:02:59.465Z,6.43
2018-11-26T05:03:59.422Z,6.31
2018-11-26T05:04:59.483Z,6.48
2018-11-26T05:05:59.467Z,6.41
2018-11-26T05:06:59.452Z,6.43
2018-11-26T05:07:59.472Z,6.43
2018-11-26T05:08:59.469Z,6.48
2018-11-26T05:09:59.483Z,6.59
2018-11-26T05:10:59.486Z,6.43
2018-11-26T05:11:59.503Z,6.40
2018-11-26T05:12:59.507Z,6.43
2018-11-26T05:13:59.520Z,6.46
2018-11-26T05:14:59.524Z,6.43
2018-11-26T05:15:59.536Z,6.37
2018-11-26T05:16:59.542Z,6.49
2018-11-26T05:17:59.553Z,6.51
2018-11-26T05:18:59.563Z,6.38
2018-11-26T05:19:59.572Z,6.44
2018-11-26T05:20:59.584Z,6.41
2018-11-26T05:21:59.595Z,6.46
2018-11-26T05:22:59.600Z,6.41
2018-11-26T05:23:59.610Z,6.43
2018-11-26T05:24:59.618Z,6.44
2018-11-26T05:25:59.629Z,6.30
2018-11-26T05:26:59.685Z,6.44
2018-11-26T05:27:59.646Z,6.38
2018-11-26T05:28:59.656Z,6.43
2018-11-26T05:29:59.973Z,6.48
2018-11-26T05:30:59.693Z,6.52
2018-11-26T05:31:59.700Z,6.54
2018-11-26T05:32:59.694Z,6.46
2018-11-26T05:33:59.704Z,6.54
2018-11-26T05:35:00.269Z,6.36
2018-11-26T05:35:59.723Z,6.52
2018-11-26T05:36:59.739Z,6.48
2018-11-26T05:37:59.740Z,6.46
2018-11-26T05:38:59.750Z,6.36
2018-11-26T05:39:59.763Z,6.49
2018-11-26T05:40:59.771Z,6.36
2018-11-26T05:41:59.778Z,6.38
2018-11-26T05:42:59.791Z,6.43
2018-11-26T05:43:59.795Z,6.44
2018-11-26T05:44:59.810Z,6.51
2018-11-26T05:45:59.815Z,6.54
2018-11-26T05:46:59.832Z,6.49
2018-11-26T05:47:59.832Z,6.54
2018-11-26T05:48:59.845Z,6.48
2018-11-26T05:49:59.853Z,6.41
2018-11-26T05:50:59.870Z,6.49
2018-11-26T05:51:59.871Z,6.36
2018-11-26T05:52:59.882Z,6.49
2018-11-26T05:53:59.889Z,6.52
2018-11-26T05:55:01.077Z,6.49
2018-11-26T05:55:59.910Z,6.40
2018-11-26T05:56:59.916Z,6.43
2018-11-26T05:57:59.926Z,6.52
2018-11-26T05:58:59.935Z,6.40
2018-11-26T05:59:59.948Z,6.40
2018-11-26T06:00:59.958Z,6.38
2018-11-26T06:01:59.967Z,6.49
2018-11-26T06:02:59.974Z,6.38
2018-11-26T06:03:59.988Z,6.52
2018-11-26T06:04:59.994Z,6.46
2018-11-26T06:06:00.003Z,6.56
2018-11-26T06:07:00.013Z,6.55
2018-11-26T06:08:00.021Z,6.51
2018-11-26T06:09:00.032Z,6.46
2018-11-26T06:10:00.084Z,6.46
2018-11-26T06:11:00.056Z,6.49
2018-11-26T06:12:00.063Z,6.58
2018-11-26T06:13:00.069Z,6.43
2018-11-26T06:14:00.088Z,6.41
2018-11-26T06:15:00.086Z,6.46
2018-11-26T06:16:00.100Z,6.41
2018-11-26T06:17:00.108Z,6.41
2018-11-26T06:18:00.116Z,6.41
2018-11-26T06:19:00.149Z,6.38
2018-11-26T06:20:00.137Z,6.49
2018-11-26T06:21:00.150Z,6.44
2018-11-26T06:22:00.151Z,6.51
2018-11-26T06:23:00.160Z,6.52
2018-11-26T06:24:00.171Z,6.38
2018-11-26T06:25:00.185Z,6.49
2018-11-26T06:26:00.190Z,6.43
2018-11-26T06:27:00.202Z,6.55
2018-11-26T06:28:00.206Z,6.51
2018-11-26T06:29:00.218Z,6.48
2018-11-26T06:30:00.232Z,6.41
2018-11-26T06:31:00.237Z,6.40
2018-11-26T06:32:00.251Z,6.43
2018-11-26T06:33:00.257Z,6.48
2018-11-26T06:34:00.269Z,6.56
2018-11-26T06:35:00.272Z,6.44
2018-11-26T06:36:00.292Z,6.54
2018-11-26T06:37:00.309Z,6.48
2018-11-26T06:38:00.303Z,6.52
2018-11-26T06:39:00.311Z,6.52
2018-11-26T06:40:00.321Z,6.49
2018-11-26T06:41:00.332Z,6.52
2018-11-26T06:42:00.339Z,6.54
2018-11-26T06:43:00.355Z,6.58
2018-11-26T06:44:00.363Z,6.54
2018-11-26T06:45:00.368Z,6.49
2018-11-26T06:46:00.379Z,6.55
2018-11-26T06:47:00.389Z,6.59
2018-11-26T06:48:00.399Z,6.54
2018-11-26T06:49:00.405Z,6.59
2018-11-26T06:50:00.417Z,6.51
2018-11-26T06:51:00.435Z,6.51
2018-11-26T06:52:00.460Z,6.58
2018-11-26T06:53:00.444Z,6.52
2018-11-26T06:54:00.459Z,6.52
2018-11-26T06:55:00.480Z,6.56
2018-11-26T06:56:00.483Z,6.52
2018-11-26T06:57:00.488Z,6.58
2018-11-26T06:58:00.491Z,6.58
2018-11-26T06:59:00.501Z,6.61
2018-11-26T07:00:00.509Z,6.54
2018-11-26T07:01:00.525Z,6.54
2018-11-26T07:02:03.922Z,6.52
2018-11-26T07:03:00.536Z,6.54
2018-11-26T07:04:00.548Z,6.52
2018-11-26T07:05:00.567Z,6.55
2018-11-26T07:06:00.568Z,6.54
2018-11-26T07:07:00.575Z,6.56
2018-11-26T07:08:00.587Z,6.55
2018-11-26T07:09:00.616Z,6.49
2018-11-26T07:10:00.606Z,6.59
2018-11-26T07:11:00.616Z,6.56
2018-11-26T07:12:00.630Z,6.44
2018-11-26T07:13:00.940Z,6.55
2018-11-26T07:14:00.650Z,6.43
2018-11-26T07:15:00.660Z,6.44
2018-11-26T07:16:00.753Z,6.46
2018-11-26T07:17:00.681Z,6.40
2018-11-26T07:18:00.684Z,6.38
2018-11-26T07:19:00.692Z,6.38
2018-11-26T07:20:00.702Z,6.48
2018-11-26T07:21:00.708Z,6.40
2018-11-26T07:22:00.718Z,6.40
2018-11-26T07:23:00.728Z,6.56
2018-11-26T07:24:00.741Z,6.48
2018-11-26T07:25:00.753Z,6.51
2018-11-26T07:26:00.755Z,6.54
2018-11-26T07:27:00.772Z,6.59
2018-11-26T07:28:00.779Z,6.52
2018-11-26T07:29:00.785Z,6.61
2018-11-26T07:30:00.798Z,6.67
2018-11-26T07:31:00.807Z,6.69
2018-11-26T07:32:00.812Z,6.71
2018-11-26T07:33:00.824Z,6.71
2018-11-26T07:34:00.832Z,6.74
2018-11-26T07:35:00.842Z,6.71
2018-11-26T07:36:00.852Z,6.67
2018-11-26T07:37:00.864Z,6.66
2018-11-26T07:38:00.868Z,6.58
2018-11-26T07:39:00.879Z,6.55
2018-11-26T07:40:00.895Z,6.56
2018-11-26T07:41:00.934Z,6.52
2018-11-26T07:42:00.913Z,6.55
2018-11-26T07:43:00.916Z,6.52
2018-11-26T07:44:00.928Z,6.55
2018-11-26T07:45:00.935Z,6.54
2018-11-26T07:46:00.982Z,6.61
2018-11-26T07:47:00.954Z,6.59
2018-11-26T07:48:00.963Z,6.52
2018-11-26T07:49:00.988Z,6.58
2018-11-26T07:50:00.982Z,6.52
2018-11-26T07:51:00.992Z,6.58
2018-11-26T07:52:00.998Z,6.54
2018-11-26T07:53:01.011Z,6.55
2018-11-26T07:54:01.023Z,6.55
2018-11-26T07:55:01.029Z,6.51
2018-11-26T07:56:01.037Z,6.55
2018-11-26T07:57:01.048Z,6.52
2018-11-26T07:58:01.060Z,6.55
2018-11-26T07:59:01.070Z,6.51
2018-11-26T08:00:01.110Z,6.54
2018-11-26T08:01:01.086Z,6.54
2018-11-26T08:02:01.113Z,6.54
2018-11-26T08:03:02.626Z,6.54
2018-11-26T08:05:01.124Z,6.59
2018-11-26T08:06:01.206Z,6.54
2018-11-26T08:07:01.142Z,6.55
2018-11-26T08:08:01.155Z,6.49
2018-11-26T08:09:01.167Z,6.54
2018-11-26T08:10:01.205Z,6.52
2018-11-26T08:11:01.210Z,6.56
2018-11-26T08:12:01.203Z,6.49
2018-11-26T08:13:01.246Z,6.52
2018-11-26T08:14:01.210Z,6.55
2018-11-26T08:15:01.224Z,6.49
2018-11-26T08:16:01.228Z,6.52
2018-11-26T08:17:01.238Z,6.54
2018-11-26T08:18:01.252Z,6.49
2018-11-26T08:19:01.777Z,6.56
2018-11-26T08:20:01.263Z,6.52
2018-11-26T08:21:01.278Z,6.49
2018-11-26T08:22:01.283Z,6.55
2018-11-26T08:23:01.294Z,6.58
2018-11-26T08:24:01.301Z,6.54
2018-11-26T08:25:01.315Z,6.56
2018-11-26T08:26:01.324Z,6.55
2018-11-26T08:27:01.336Z,6.54
2018-11-26T08:28:01.343Z,6.51
2018-11-26T08:29:01.352Z,6.54
2018-11-26T08:30:01.367Z,6.51
2018-11-26T08:31:01.372Z,6.55
2018-11-26T08:32:01.394Z,6.51
2018-11-26T08:33:01.398Z,6.48
2018-11-26T08:34:01.397Z,6.51
2018-11-26T08:35:01.413Z,6.46
2018-11-26T08:36:01.422Z,6.52
2018-11-26T08:37:01.426Z,6.54
2018-11-26T08:38:01.476Z,6.55
2018-11-26T08:39:01.448Z,6.54
2018-11-26T08:40:01.461Z,6.54
2018-11-26T08:41:01.467Z,6.59
2018-11-26T08:42:01.473Z,6.56
2018-11-26T08:43:01.480Z,6.51
2018-11-26T08:44:01.492Z,6.49
2018-11-26T08:45:01.503Z,6.56
2018-11-26T08:46:01.513Z,6.44
2018-11-26T08:47:01.538Z,6.48
2018-11-26T08:48:01.531Z,6.44
2018-11-26T08:49:01.541Z,6.58
2018-11-26T08:51:01.567Z,6.69
2018-11-26T08:52:01.571Z,6.69
2018-11-26T08:53:02.198Z,6.55
2018-11-26T08:54:02.233Z,6.69
2018-11-26T08:55:01.633Z,6.62
2018-11-26T08:56:01.676Z,6.64
2018-11-26T08:57:01.618Z,6.56
2018-11-26T08:58:01.629Z,6.58
2018-11-26T08:59:01.634Z,6.55
2018-11-26T09:00:01.644Z,6.58
2018-11-26T09:01:01.653Z,6.54
2018-11-26T09:02:01.669Z,6.56
2018-11-26T09:03:01.679Z,6.66
2018-11-26T09:04:01.681Z,6.64
2018-11-26T09:05:01.698Z,6.70
2018-11-26T09:06:01.708Z,6.66
2018-11-26T09:07:01.715Z,6.66
2018-11-26T09:08:01.720Z,6.69
2018-11-26T09:09:01.736Z,6.67
2018-11-26T09:10:01.749Z,6.58
2018-11-26T09:11:01.760Z,6.62
2018-11-26T09:12:01.786Z,6.69
2018-11-26T09:13:01.768Z,6.66
2018-11-26T09:14:01.819Z,6.71
2018-11-26T09:15:01.803Z,6.69
2018-11-26T09:16:01.802Z,6.66
2018-11-26T09:17:02.451Z,6.67
2018-11-26T09:18:01.818Z,6.71
2018-11-26T09:19:01.829Z,6.70
2018-11-26T09:20:01.853Z,6.80
2018-11-26T09:21:01.857Z,6.87
2018-11-26T09:22:01.868Z,6.89
2018-11-26T09:23:02.565Z,6.97
2018-11-26T09:24:01.952Z,6.97
2018-11-26T09:25:01.898Z,6.87
2018-11-26T09:26:01.899Z,6.97
2018-11-26T09:27:01.950Z,6.81
2018-11-26T09:28:01.918Z,6.74
2018-11-26T09:29:01.939Z,6.79
2018-11-26T09:30:01.937Z,6.74
2018-11-26T09:31:01.944Z,6.77
2018-11-26T09:32:01.955Z,6.84
2018-11-26T09:33:01.980Z,6.74
2018-11-26T09:34:01.989Z,6.81
2018-11-26T09:35:02.071Z,6.87
2018-11-26T09:36:02.010Z,6.88
2018-11-26T09:37:02.007Z,6.80
2018-11-26T09:38:02.019Z,6.88
2018-11-26T09:39:02.025Z,6.88
2018-11-26T09:40:02.040Z,6.87
2018-11-26T09:41:02.040Z,6.84
2018-11-26T09:42:02.054Z,6.92
2018-11-26T09:43:02.061Z,6.87
2018-11-26T09:44:03.356Z,6.87
2018-11-26T09:46:02.088Z,6.85
2018-11-26T09:47:02.108Z,6.84
2018-11-26T09:48:02.118Z,6.89
2018-11-26T09:49:02.116Z,6.85
2018-11-26T09:50:02.131Z,6.88
2018-11-26T09:51:02.145Z,6.89
2018-11-26T09:52:02.147Z,6.88
2018-11-26T09:53:02.159Z,6.85
2018-11-26T09:54:02.169Z,6.81
2018-11-26T09:55:02.185Z,6.94
2018-11-26T09:56:02.188Z,6.88
2018-11-26T09:57:02.297Z,6.91
2018-11-26T09:58:02.209Z,6.80
2018-11-26T09:59:02.216Z,6.79
2018-11-26T10:00:02.228Z,6.84
2018-11-26T10:01:02.249Z,6.76
2018-11-26T10:02:02.245Z,6.73
2018-11-26T10:03:02.257Z,6.71
2018-11-26T10:04:02.266Z,6.73
2018-11-26T10:05:02.280Z,6.69
2018-11-26T10:06:02.285Z,6.66
2018-11-26T10:07:03.396Z,6.69
2018-11-26T10:08:02.309Z,6.69
2018-11-26T10:09:02.335Z,6.66
2018-11-26T10:10:02.324Z,6.69
2018-11-26T10:11:02.384Z,6.69
2018-11-26T10:12:02.348Z,6.67
2018-11-26T10:13:02.367Z,6.70
2018-11-26T10:14:02.590Z,6.77
2018-11-26T10:15:02.374Z,6.79
2018-11-26T10:16:04.856Z,6.74
2018-11-26T10:17:02.404Z,6.69
2018-11-26T10:18:02.403Z,6.64
2018-11-26T10:19:02.412Z,6.71
2018-11-26T10:20:02.513Z,6.64
2018-11-26T10:21:02.435Z,6.66
2018-11-26T10:22:02.446Z,6.71
2018-11-26T10:23:02.472Z,6.71
2018-11-26T10:24:02.461Z,6.73
2018-11-26T10:25:06.034Z,6.69
2018-11-26T10:26:04.265Z,6.67
2018-11-26T10:27:02.491Z,6.61
2018-11-26T10:28:02.505Z,6.71
2018-11-26T10:29:02.512Z,6.71
2018-11-26T10:30:02.522Z,6.76
2018-11-26T10:31:02.530Z,6.77
2018-11-26T10:32:02.543Z,6.81
2018-11-26T10:33:02.555Z,6.85
2018-11-26T10:34:02.565Z,6.79
2018-11-26T10:35:02.572Z,6.80
2018-11-26T10:36:02.581Z,6.91
2018-11-26T10:37:02.601Z,6.92
2018-11-26T10:38:02.600Z,6.79
2018-11-26T10:39:02.611Z,6.80
2018-11-26T10:40:02.623Z,6.79
2018-11-26T10:41:02.630Z,6.85
2018-11-26T10:42:02.641Z,6.79
2018-11-26T10:43:02.650Z,6.87
2018-11-26T10:44:02.664Z,6.89
2018-11-26T10:45:03.626Z,6.77
2018-11-26T10:46:02.695Z,6.79
2018-11-26T10:48:03.423Z,6.80
2018-11-26T10:49:02.708Z,6.79
2018-11-26T10:50:02.719Z,6.88
2018-11-26T10:51:02.733Z,6.84
2018-11-26T10:52:02.736Z,6.81
2018-11-26T10:53:02.771Z,6.81
2018-11-26T10:54:02.761Z,6.77
2018-11-26T10:55:02.768Z,6.80
2018-11-26T10:56:02.802Z,6.84
2018-11-26T10:57:02.796Z,6.79
2018-11-26T10:58:02.815Z,6.77
2018-11-26T10:59:02.808Z,6.70
2018-11-26T11:00:02.819Z,6.70
2018-11-26T11:01:02.830Z,6.73
2018-11-26T11:02:02.843Z,6.70
2018-11-26T11:06:02.878Z,6.51
2018-11-26T11:07:02.886Z,6.54
2018-11-26T11:08:03.422Z,6.55
2018-11-26T11:09:04.943Z,6.54
2018-11-26T11:10:03.058Z,6.59
2018-11-26T11:11:03.143Z,6.59
2018-11-26T11:12:03.393Z,6.56
2018-11-26T11:13:03.744Z,6.54
2018-11-26T11:14:02.955Z,6.56
2018-11-26T11:15:03.026Z,6.54
2018-11-26T11:16:04.703Z,6.52
2018-11-26T11:17:03.907Z,6.52
2018-11-26T11:18:03.068Z,6.55
2018-11-26T11:20:03.113Z,6.54
2018-11-26T11:21:03.024Z,6.66
2018-11-26T11:22:03.410Z,6.59
2018-11-26T11:23:03.441Z,6.55
2018-11-26T11:24:03.174Z,6.52
2018-11-26T11:25:03.921Z,6.56
2018-11-26T11:26:03.075Z,6.54
2018-11-26T11:28:03.101Z,6.55
2018-11-26T11:29:03.113Z,6.49
2018-11-26T11:30:03.118Z,6.41
2018-11-26T11:31:03.128Z,6.37
2018-11-26T11:32:03.134Z,6.38
2018-11-26T11:34:03.157Z,6.44
2018-11-26T11:35:03.175Z,6.44
2018-11-26T11:36:03.181Z,6.43
2018-11-26T11:37:03.187Z,6.44
2018-11-26T11:38:03.193Z,6.48
2018-11-26T11:39:03.206Z,6.51
2018-11-26T11:40:03.212Z,6.43
2018-11-26T11:41:03.226Z,6.36
2018-11-26T11:42:03.236Z,6.49
2018-11-26T11:43:03.242Z,6.49
2018-11-26T11:44:03.279Z,6.44
2018-11-26T11:45:03.273Z,6.38
2018-11-26T11:46:03.282Z,6.46
2018-11-26T11:47:03.487Z,6.41
2018-11-26T11:48:03.290Z,6.37
2018-11-26T11:49:03.304Z,6.36
2018-11-26T11:50:03.315Z,6.31
2018-11-26T11:51:03.321Z,6.43
2018-11-26T11:52:03.329Z,6.38
2018-11-26T11:53:03.343Z,6.37
2018-11-26T11:54:03.353Z,6.43
2018-11-26T11:55:03.361Z,6.37
2018-11-26T11:56:03.386Z,6.44
2018-11-26T11:57:03.381Z,6.41
2018-11-26T11:58:03.390Z,6.44
2018-11-26T11:59:03.402Z,6.41
2018-11-26T12:00:03.405Z,6.49
2018-11-26T12:01:03.422Z,6.48
2018-11-26T12:02:03.432Z,6.48
2018-11-26T12:03:03.439Z,6.49
2018-11-26T12:04:03.450Z,6.48
2018-11-26T12:05:03.462Z,6.51
2018-11-26T12:06:03.466Z,6.61
2018-11-26T12:07:03.476Z,6.46
2018-11-26T12:08:03.503Z,6.46
2018-11-26T12:09:03.498Z,6.46
2018-11-26T12:10:03.505Z,6.46
2018-11-26T12:11:03.516Z,6.41
2018-11-26T12:12:03.523Z,6.51
2018-11-26T12:13:03.542Z,6.54
2018-11-26T12:14:03.542Z,6.38
2018-11-26T12:15:03.552Z,6.40
2018-11-26T12:16:03.562Z,6.44
2018-11-26T12:17:03.575Z,6.31
2018-11-26T12:18:03.590Z,6.51
2018-11-26T12:19:03.590Z,6.43
2018-11-26T12:20:03.603Z,6.43
2018-11-26T12:21:03.616Z,6.44
2018-11-26T12:22:03.620Z,6.40
2018-11-26T12:23:03.632Z,6.41
2018-11-26T12:24:03.641Z,6.43
2018-11-26T12:25:03.654Z,6.37
2018-11-26T12:26:03.664Z,6.43
2018-11-26T12:27:03.668Z,6.44
2018-11-26T12:28:03.694Z,6.43
2018-11-26T12:29:03.690Z,6.54
2018-11-26T12:30:03.715Z,6.36
2018-11-26T12:31:03.708Z,6.31
2018-11-26T12:32:03.718Z,6.37
2018-11-26T12:33:03.729Z,6.36
2018-11-26T12:34:03.738Z,6.27
2018-11-26T12:35:03.752Z,6.38
2018-11-26T12:36:03.761Z,6.40
2018-11-26T12:37:03.768Z,6.36
2018-11-26T12:38:03.778Z,6.30
2018-11-26T12:39:03.787Z,6.33
2018-11-26T12:40:03.803Z,6.34
2018-11-26T12:41:03.815Z,6.37
2018-11-26T12:42:04.302Z,6.28
2018-11-26T12:43:03.828Z,6.27
2018-11-26T12:44:03.840Z,6.21
2018-11-26T12:45:03.843Z,6.15
2018-11-26T12:46:03.857Z,6.19
2018-11-26T12:47:03.868Z,6.31
2018-11-26T12:48:03.875Z,6.30
2018-11-26T12:49:03.886Z,6.43
2018-11-26T12:50:03.901Z,6.41
2018-11-26T12:51:03.902Z,6.34
2018-11-26T12:52:03.913Z,6.36
2018-11-26T12:53:04.045Z,6.36
2018-11-26T12:54:03.932Z,6.41
2018-11-26T12:55:03.940Z,6.36
2018-11-26T12:56:03.974Z,6.38
2018-11-26T12:57:03.987Z,6.31
2018-11-26T12:58:04.276Z,6.41
2018-11-26T12:59:03.982Z,6.40
2018-11-26T13:00:04.074Z,6.40
2018-11-26T13:01:04.743Z,6.34
2018-11-26T13:02:04.145Z,6.44
2018-11-26T13:03:04.381Z,6.40
2018-11-26T13:05:04.093Z,6.37
2018-11-26T13:06:04.431Z,6.27
2018-11-26T13:07:04.198Z,6.31
2018-11-26T13:08:04.122Z,6.17
2018-11-26T13:09:04.077Z,6.17
2018-11-26T13:10:04.110Z,6.25
2018-11-26T13:11:04.122Z,6.34
2018-11-26T13:12:04.112Z,6.28
2018-11-26T13:13:04.115Z,6.34
2018-11-26T13:14:04.125Z,6.31
2018-11-26T13:15:04.133Z,6.25
2018-11-26T13:16:04.144Z,6.12
2018-11-26T13:17:04.156Z,6.14
2018-11-26T13:18:04.166Z,6.17
2018-11-26T13:19:04.175Z,6.17
2018-11-26T13:20:04.182Z,6.14
2018-11-26T13:21:04.193Z,6.01
2018-11-26T13:22:04.202Z,6.03
2018-11-26T13:23:04.211Z,6.04
2018-11-26T13:24:04.220Z,6.04
2018-11-26T13:25:04.252Z,6.06
2018-11-26T13:26:04.239Z,6.04
2018-11-26T13:27:04.284Z,6.00
2018-11-26T13:28:04.265Z,6.00
2018-11-26T13:29:04.272Z,6.12
2018-11-26T13:30:04.289Z,6.11